Time;durP1;ratioP1;P1;durP2;ratioP2;P2;SDS_P1;SDS_P2;PMS_P1;PMS_P2;Temp;Humidity;BMP_temperature;BMP_pressure;BME280_temperature;BME280_humidity;BME280_pressure;Samples;Min_cycle;Max_cycle;Signal;HPM_P1;HPM_P2
2022/06/26 00:01:35;;;;;;;8.43;4.90;;;;;;;;;;1732703;82;21044;-72
2022/06/26 00:04:03;;;;;;;7.83;4.35;;;;;;;;;;1733426;82;21543;-72
2022/06/26 00:06:29;;;;;;;7.85;4.37;;;;;;;;;;1747187;82;21013;-71
2022/06/26 00:08:55;;;;;;;5.05;3.75;;;;;;;;;;1739820;82;20992;-71
2022/06/26 00:11:21;;;;;;;7.33;4.30;;;;;;;;;;1741169;82;20990;-71
2022/06/26 00:13:47;;;;;;;8.20;4.30;;;;;;;;;;1725908;82;21052;-73
2022/06/26 00:16:14;;;;;;;6.47;4.47;;;;;;;;;;1718204;83;21128;-72
2022/06/26 00:18:41;;;;;;;6.80;4.55;;;;;;;;;;1733300;81;21052;-71
2022/06/26 00:21:07;;;;;;;5.28;4.05;;;;;;;;;;1732746;81;21049;-73
2022/06/26 00:23:34;;;;;;;4.72;4.00;;;;;;;;;;1723705;82;21063;-71
2022/06/26 00:26:01;;;;;;;6.22;4.72;;;;;;;;;;1739607;82;21069;-71
2022/06/26 00:28:28;;;;;;;5.95;4.35;;;;;;;;;;1743477;82;21000;-72
2022/06/26 00:30:54;;;;;;;7.30;4.83;;;;;;;;;;1753370;82;21032;-72
2022/06/26 00:33:20;;;;;;;5.65;4.45;;;;;;;;;;1751390;81;20985;-72
2022/06/26 00:35:47;;;;;;;5.78;4.22;;;;;;;;;;1753521;82;21579;-71
2022/06/26 00:38:12;;;;;;;6.08;4.55;;;;;;;;;;1753691;82;21052;-71
2022/06/26 00:40:42;;;;;;;5.72;3.83;;;;;;;;;;1752442;82;21495;-71
2022/06/26 00:43:08;;;;;;;5.08;4.22;;;;;;;;;;1727255;82;21022;-71
2022/06/26 00:45:35;;;;;;;8.50;4.40;;;;;;;;;;1753221;81;21020;-71
2022/06/26 00:48:02;;;;;;;6.53;4.53;;;;;;;;;;1753650;82;21060;-71
2022/06/26 00:50:28;;;;;;;7.12;4.65;;;;;;;;;;1729469;82;21080;-71
2022/06/26 00:52:56;;;;;;;5.80;4.05;;;;;;;;;;1724361;82;21116;-71
2022/06/26 00:55:22;;;;;;;6.00;4.75;;;;;;;;;;1723722;83;21595;-71
2022/06/26 00:57:49;;;;;;;7.20;4.10;;;;;;;;;;1728877;82;21052;-71
2022/06/26 01:00:15;;;;;;;6.53;4.35;;;;;;;;;;1751219;82;21076;-70
2022/06/26 01:05:29;;;;;;;5.15;4.00;;;;;;;;;;1694132;83;21148;-73
2022/06/26 01:07:55;;;;;;;6.78;4.00;;;;;;;;;;1680938;85;22105;-73
2022/06/26 01:10:22;;;;;;;6.65;4.40;;;;;;;;;;1665354;86;21063;-73
2022/06/26 01:12:49;;;;;;;7.37;5.03;;;;;;;;;;1667286;86;21584;-73
2022/06/26 01:15:15;;;;;;;6.37;4.15;;;;;;;;;;1669738;86;21049;-73
2022/06/26 01:17:42;;;;;;;5.75;4.55;;;;;;;;;;1669579;86;21058;-73
2022/06/26 01:20:10;;;;;;;7.25;4.70;;;;;;;;;;1670023;83;21581;-73
2022/06/26 01:22:36;;;;;;;5.40;4.90;;;;;;;;;;1665409;86;21082;-73
2022/06/26 01:25:04;;;;;;;6.12;4.53;;;;;;;;;;1664626;86;21099;-73
2022/06/26 01:27:30;;;;;;;7.30;4.47;;;;;;;;;;1664307;86;21522;-73
2022/06/26 01:32:49;;;;;;;6.22;4.35;;;;;;;;;;1801052;79;22809;-74
2022/06/26 01:35:15;;;;;;;6.20;5.35;;;;;;;;;;1768246;80;21032;-73
2022/06/26 01:37:46;;;;;;;7.25;4.83;;;;;;;;;;1767692;80;21531;-74
2022/06/26 01:40:12;;;;;;;5.85;4.70;;;;;;;;;;1759678;80;21532;-73
2022/06/26 01:42:39;;;;;;;6.37;4.53;;;;;;;;;;1759077;80;21028;-74
2022/06/26 01:45:07;;;;;;;5.47;4.55;;;;;;;;;;1761700;81;21005;-73
2022/06/26 01:47:33;;;;;;;7.10;4.65;;;;;;;;;;1761862;81;21004;-73
2022/06/26 01:49:59;;;;;;;6.30;4.70;;;;;;;;;;1767984;80;21471;-73
2022/06/26 01:52:25;;;;;;;7.28;4.78;;;;;;;;;;1787648;80;21106;-73
2022/06/26 01:54:51;;;;;;;5.53;4.58;;;;;;;;;;1787082;80;21003;-73
2022/06/26 01:57:18;;;;;;;7.20;4.62;;;;;;;;;;1761836;81;20993;-73
2022/06/26 01:59:45;;;;;;;5.55;4.70;;;;;;;;;;1756289;81;21543;-73
2022/06/26 02:02:12;;;;;;;6.60;4.80;;;;;;;;;;1760058;80;21246;-73
2022/06/26 02:04:38;;;;;;;7.28;4.92;;;;;;;;;;1753886;81;21060;-73
2022/06/26 02:07:04;;;;;;;6.90;4.87;;;;;;;;;;1723887;82;21072;-73
2022/06/26 02:15:06;;;;;;;5.67;4.10;;;;;;;;;;1752698;82;21498;-73
2022/06/26 02:17:32;;;;;;;8.13;4.95;;;;;;;;;;1746120;82;21048;-73
2022/06/26 02:19:58;;;;;;;5.15;4.05;;;;;;;;;;1729130;82;21021;-73
2022/06/26 02:22:24;;;;;;;5.20;4.40;;;;;;;;;;1725331;82;21467;-74
2022/06/26 02:24:50;;;;;;;5.90;4.12;;;;;;;;;;1723411;83;20989;-74
2022/06/26 02:27:17;;;;;;;5.40;4.70;;;;;;;;;;1746317;82;21029;-74
2022/06/26 02:29:44;;;;;;;6.25;4.08;;;;;;;;;;1728729;82;21052;-73
2022/06/26 02:32:10;;;;;;;6.28;4.10;;;;;;;;;;1745538;82;21036;-73
2022/06/26 02:34:36;;;;;;;5.28;4.22;;;;;;;;;;1754250;82;21029;-73
2022/06/26 02:37:03;;;;;;;6.42;4.60;;;;;;;;;;1753989;82;21046;-73
2022/06/26 02:39:29;;;;;;;5.65;4.53;;;;;;;;;;1730343;82;21068;-74
2022/06/26 02:41:56;;;;;;;6.47;4.33;;;;;;;;;;1742419;82;21568;-73
2022/06/26 02:44:22;;;;;;;5.72;4.90;;;;;;;;;;1753485;82;21041;-73
2022/06/26 02:46:49;;;;;;;6.28;4.42;;;;;;;;;;1753662;82;21040;-73
2022/06/26 02:49:15;;;;;;;7.65;4.62;;;;;;;;;;1734302;82;21528;-73
2022/06/26 02:51:43;;;;;;;6.45;4.25;;;;;;;;;;1724001;82;21089;-72
2022/06/26 02:54:09;;;;;;;5.20;4.55;;;;;;;;;;1737713;82;21020;-72
2022/06/26 02:56:35;;;;;;;7.70;4.58;;;;;;;;;;1740114;82;21564;-72
2022/06/26 02:59:03;;;;;;;5.65;4.40;;;;;;;;;;1744990;82;21017;-72
2022/06/26 03:01:32;;;;;;;6.08;4.92;;;;;;;;;;1739966;82;21025;-73
2022/06/26 03:04:00;;;;;;;5.35;4.42;;;;;;;;;;1721829;83;21137;-72
2022/06/26 03:06:26;;;;;;;6.00;4.53;;;;;;;;;;1724895;82;21045;-72
2022/06/26 03:08:53;;;;;;;6.42;4.95;;;;;;;;;;1736071;82;21052;-72
2022/06/26 03:11:19;;;;;;;8.40;4.90;;;;;;;;;;1746767;82;21064;-72
2022/06/26 03:13:46;;;;;;;5.80;5.00;;;;;;;;;;1751423;82;21068;-72
2022/06/26 03:16:12;;;;;;;6.00;4.40;;;;;;;;;;1743975;82;21024;-73
2022/06/26 03:18:39;;;;;;;5.37;4.17;;;;;;;;;;1744530;82;21103;-72
2022/06/26 03:21:05;;;;;;;7.25;4.70;;;;;;;;;;1743676;82;21068;-74
2022/06/26 03:26:18;;;;;;;6.30;4.37;;;;;;;;;;1730327;82;21492;-73
2022/06/26 03:28:45;;;;;;;5.70;4.83;;;;;;;;;;1747793;82;21005;-72
2022/06/26 03:31:11;;;;;;;6.03;4.20;;;;;;;;;;1724502;82;21050;-71
2022/06/26 03:33:39;;;;;;;9.03;7.28;;;;;;;;;;1717939;82;21033;-72
2022/06/26 03:36:08;;;;;;;6.00;5.15;;;;;;;;;;1724716;82;21085;-72
2022/06/26 03:38:35;;;;;;;6.62;5.15;;;;;;;;;;1738623;82;21029;-72
2022/06/26 03:41:01;;;;;;;7.15;4.78;;;;;;;;;;1738963;82;21722;-72
2022/06/26 03:43:27;;;;;;;5.58;3.95;;;;;;;;;;1738477;82;21037;-72
2022/06/26 03:45:53;;;;;;;4.87;4.00;;;;;;;;;;1717476;82;22060;-72
2022/06/26 03:48:20;;;;;;;6.30;4.67;;;;;;;;;;1710754;82;21040;-73
2022/06/26 03:50:46;;;;;;;5.03;4.37;;;;;;;;;;1710678;82;21060;-72
2022/06/26 03:53:12;;;;;;;4.53;4.05;;;;;;;;;;1727811;82;21021;-72
2022/06/26 03:55:38;;;;;;;6.28;5.22;;;;;;;;;;1739345;82;21572;-72
2022/06/26 03:58:06;;;;;;;7.40;4.50;;;;;;;;;;1717883;82;21033;-72
2022/06/26 04:00:33;;;;;;;6.22;4.50;;;;;;;;;;1732166;82;21041;-72
2022/06/26 04:03:01;;;;;;;6.03;4.08;;;;;;;;;;1731523;82;21039;-71
2022/06/26 04:05:28;;;;;;;5.90;4.22;;;;;;;;;;1710276;82;21044;-72
2022/06/26 04:07:56;;;;;;;5.85;3.62;;;;;;;;;;1710108;84;21060;-72
2022/06/26 04:10:27;;;;;;;4.83;4.03;;;;;;;;;;1718167;82;21065;-73
2022/06/26 04:12:53;;;;;;;5.00;4.15;;;;;;;;;;1729615;82;21013;-73
2022/06/26 04:15:20;;;;;;;6.25;4.30;;;;;;;;;;1712310;82;21575;-73
2022/06/26 04:17:47;;;;;;;5.33;4.22;;;;;;;;;;1717895;82;21061;-73
2022/06/26 04:20:15;;;;;;;6.28;3.95;;;;;;;;;;1737384;82;21021;-73
2022/06/26 04:22:43;;;;;;;6.60;4.08;;;;;;;;;;1713120;82;20997;-72
2022/06/26 04:25:11;;;;;;;5.28;4.42;;;;;;;;;;1723702;82;21053;-73
2022/06/26 04:27:37;;;;;;;4.30;3.85;;;;;;;;;;1739418;82;21530;-72
2022/06/26 04:30:05;;;;;;;6.12;3.98;;;;;;;;;;1739596;82;21029;-73
2022/06/26 04:32:31;;;;;;;5.10;4.10;;;;;;;;;;1726630;82;22083;-73
2022/06/26 04:34:57;;;;;;;4.30;3.75;;;;;;;;;;1724415;82;21048;-72
2022/06/26 04:37:24;;;;;;;5.42;3.98;;;;;;;;;;1753244;82;21012;-71
2022/06/26 04:39:50;;;;;;;4.85;3.87;;;;;;;;;;1738593;82;21515;-72
2022/06/26 04:42:16;;;;;;;3.62;3.30;;;;;;;;;;1750318;82;21036;-71
2022/06/26 04:44:43;;;;;;;4.60;3.62;;;;;;;;;;1749966;82;20962;-70
2022/06/26 04:47:11;;;;;;;4.75;3.25;;;;;;;;;;1752377;82;21076;-71
2022/06/26 04:49:51;;;;;;;4.30;3.50;;;;;;;;;;1747879;82;21019;-70
2022/06/26 04:52:18;;;;;;;5.95;3.50;;;;;;;;;;1736733;82;21383;-71
2022/06/26 04:54:44;;;;;;;5.03;3.70;;;;;;;;;;1733483;82;21649;-71
2022/06/26 04:57:11;;;;;;;3.92;3.55;;;;;;;;;;1723733;82;21032;-70
2022/06/26 04:59:37;;;;;;;4.28;3.70;;;;;;;;;;1744190;82;20989;-70
2022/06/26 05:02:05;;;;;;;4.70;3.45;;;;;;;;;;1730464;82;20989;-70
2022/06/26 05:04:39;;;;;;;5.83;3.65;;;;;;;;;;1718599;82;21143;-71
2022/06/26 05:07:07;;;;;;;3.83;3.27;;;;;;;;;;1747981;82;21099;-71
2022/06/26 05:09:37;;;;;;;5.60;3.70;;;;;;;;;;1735424;82;21089;-71
2022/06/26 05:12:03;;;;;;;5.45;3.60;;;;;;;;;;1742092;82;21579;-72
2022/06/26 05:14:31;;;;;;;4.35;3.70;;;;;;;;;;1728965;82;21021;-71
2022/06/26 05:16:59;;;;;;;5.08;3.55;;;;;;;;;;1724336;82;20973;-71
2022/06/26 05:19:27;;;;;;;5.28;3.90;;;;;;;;;;1723493;83;21006;-72
2022/06/26 05:21:53;;;;;;;4.00;3.60;;;;;;;;;;1723745;83;21044;-72
2022/06/26 05:24:21;;;;;;;5.08;3.40;;;;;;;;;;1752978;80;21025;-71
2022/06/26 05:26:48;;;;;;;6.37;3.72;;;;;;;;;;1723799;82;21048;-71
2022/06/26 05:29:14;;;;;;;4.00;3.60;;;;;;;;;;1723709;83;21020;-71
2022/06/26 05:31:40;;;;;;;5.65;3.83;;;;;;;;;;1723759;83;21084;-72
2022/06/26 05:34:06;;;;;;;4.12;3.60;;;;;;;;;;1726793;82;21023;-71
2022/06/26 05:36:32;;;;;;;5.10;3.90;;;;;;;;;;1735201;82;21587;-71
2022/06/26 05:39:00;;;;;;;5.20;3.42;;;;;;;;;;1744672;82;20993;-71
2022/06/26 05:41:28;;;;;;;5.15;3.30;;;;;;;;;;1745248;82;20997;-71
2022/06/26 05:43:57;;;;;;;4.58;3.55;;;;;;;;;;1744936;82;20992;-72
2022/06/26 05:46:26;;;;;;;3.92;3.42;;;;;;;;;;1731562;82;21040;-71
2022/06/26 05:49:03;;;;;;;5.20;3.62;;;;;;;;;;1672129;85;21392;-72
2022/06/26 05:51:31;;;;;;;3.72;3.08;;;;;;;;;;1742276;82;21111;-71
2022/06/26 05:54:05;;;;;;;5.12;3.22;;;;;;;;;;1737068;82;21033;-71
2022/06/26 05:56:34;;;;;;;4.03;3.22;;;;;;;;;;1729694;82;21064;-71
2022/06/26 05:59:14;;;;;;;6.78;4.00;;;;;;;;;;1725748;82;21290;-72
2022/06/26 06:01:48;;;;;;;4.12;3.50;;;;;;;;;;1737093;82;21001;-71
2022/06/26 06:04:15;;;;;;;6.15;3.60;;;;;;;;;;1728259;82;21020;-70
2022/06/26 06:06:42;;;;;;;4.33;3.60;;;;;;;;;;1742125;82;21001;-71
2022/06/26 06:09:09;;;;;;;4.85;3.67;;;;;;;;;;1736537;82;21044;-72
2022/06/26 06:11:35;;;;;;;4.12;3.60;;;;;;;;;;1730060;82;21000;-72
2022/06/26 06:14:02;;;;;;;10.08;4.10;;;;;;;;;;1735047;82;20981;-74
2022/06/26 06:16:29;;;;;;;4.87;3.50;;;;;;;;;;1726138;82;20977;-69
2022/06/26 06:18:55;;;;;;;8.10;4.25;;;;;;;;;;1729432;82;21472;-72
2022/06/26 06:21:23;;;;;;;6.97;3.95;;;;;;;;;;1733127;82;21056;-73
2022/06/26 06:26:14;;;;;;;8.30;3.90;;;;;;;;;;1791569;78;24225;-72
2022/06/26 06:28:42;;;;;;;5.08;3.75;;;;;;;;;;1768318;80;21016;-72
2022/06/26 06:31:09;;;;;;;4.70;3.80;;;;;;;;;;1728660;81;21043;-73
2022/06/26 06:33:35;;;;;;;3.90;3.50;;;;;;;;;;1711688;83;21452;-73
2022/06/26 06:36:01;;;;;;;6.12;3.90;;;;;;;;;;1739893;81;21022;-72
2022/06/26 06:38:29;;;;;;;6.37;3.60;;;;;;;;;;1747710;81;21015;-79
2022/06/26 06:40:57;;;;;;;5.42;3.55;;;;;;;;;;1734627;81;21085;-77
2022/06/26 06:43:26;;;;;;;7.67;3.55;;;;;;;;;;1696869;84;21068;-78
2022/06/26 06:45:59;;;;;;;4.30;3.22;;;;;;;;;;1653493;84;21037;-78
2022/06/26 06:48:26;;;;;;;5.12;3.33;;;;;;;;;;1703212;83;21495;-78
2022/06/26 06:51:09;;;;;;;4.03;2.95;;;;;;;;;;1638676;87;22009;-78
2022/06/26 06:53:35;;;;;;;5.12;3.10;;;;;;;;;;1661638;83;22314;-77
2022/06/26 06:56:01;;;;;;;10.35;4.03;;;;;;;;;;1698086;83;21017;-76
2022/06/26 06:58:27;;;;;;;5.17;3.62;;;;;;;;;;1702725;83;21049;-77
2022/06/26 07:00:54;;;;;;;3.90;3.33;;;;;;;;;;1700016;83;21040;-78
2022/06/26 07:03:21;;;;;;;4.78;3.08;;;;;;;;;;1687171;83;21555;-79
2022/06/26 07:05:48;;;;;;;4.90;3.37;;;;;;;;;;1675455;84;21012;-78
2022/06/26 07:08:16;;;;;;;4.30;3.85;;;;;;;;;;1678397;84;21103;-78
2022/06/26 07:10:42;;;;;;;7.17;4.30;;;;;;;;;;1672299;85;21583;-78
2022/06/26 07:13:10;;;;;;;5.03;3.27;;;;;;;;;;1670720;84;21101;-78
2022/06/26 07:15:37;;;;;;;4.17;3.65;;;;;;;;;;1671896;84;21566;-78
2022/06/26 07:18:03;;;;;;;6.00;3.60;;;;;;;;;;1671510;84;21028;-76
2022/06/26 07:20:29;;;;;;;4.45;4.03;;;;;;;;;;1651387;85;21371;-77
2022/06/26 07:22:55;;;;;;;5.37;3.90;;;;;;;;;;1645062;86;21013;-80
2022/06/26 07:25:39;;;;;;;3.95;3.15;;;;;;;;;;1650511;86;21026;-74
2022/06/26 07:28:08;;;;;;;5.28;3.40;;;;;;;;;;1677414;85;21580;-78
2022/06/26 07:30:35;;;;;;;3.92;3.15;;;;;;;;;;1670624;85;21047;-76
2022/06/26 07:33:04;;;;;;;4.25;3.10;;;;;;;;;;1656915;86;21041;-77
2022/06/26 07:35:31;;;;;;;3.75;3.00;;;;;;;;;;1651901;85;21047;-75
2022/06/26 07:37:57;;;;;;;4.85;3.25;;;;;;;;;;1645675;86;21114;-77
2022/06/26 07:40:24;;;;;;;3.87;3.30;;;;;;;;;;1645394;86;21077;-76
2022/06/26 07:42:50;;;;;;;3.65;2.95;;;;;;;;;;1641432;86;21020;-76
2022/06/26 07:45:17;;;;;;;5.03;3.37;;;;;;;;;;1696573;83;21600;-76
2022/06/26 07:47:44;;;;;;;4.65;3.45;;;;;;;;;;1689999;85;21515;-76
2022/06/26 07:50:14;;;;;;;4.15;3.10;;;;;;;;;;1692729;85;21563;-76
2022/06/26 07:52:40;;;;;;;5.22;3.33;;;;;;;;;;1691526;83;21188;-75
2022/06/26 07:55:06;;;;;;;3.92;3.45;;;;;;;;;;1692978;85;21177;-76
2022/06/26 07:57:32;;;;;;;5.10;3.37;;;;;;;;;;1693029;85;21024;-76
2022/06/26 07:59:58;;;;;;;3.70;3.27;;;;;;;;;;1692955;85;21052;-76
2022/06/26 08:02:25;;;;;;;3.87;3.10;;;;;;;;;;1710744;82;21032;-75
2022/06/26 08:04:51;;;;;;;5.00;3.20;;;;;;;;;;1716486;83;21001;-76
2022/06/26 08:07:18;;;;;;;3.85;3.33;;;;;;;;;;1724646;83;21053;-74
2022/06/26 08:09:46;;;;;;;5.08;2.87;;;;;;;;;;1724657;83;21571;-75
2022/06/26 08:12:12;;;;;;;4.35;3.00;;;;;;;;;;1724784;83;21519;-75
2022/06/26 08:14:38;;;;;;;4.55;3.37;;;;;;;;;;1723608;83;21144;-75
2022/06/26 08:17:04;;;;;;;4.90;3.10;;;;;;;;;;1723886;83;21091;-75
2022/06/26 08:19:30;;;;;;;3.75;3.22;;;;;;;;;;1724419;83;21519;-75
2022/06/26 08:22:02;;;;;;;19.10;3.95;;;;;;;;;;1724491;83;21036;-75
2022/06/26 08:24:29;;;;;;;4.87;2.80;;;;;;;;;;1720406;83;21057;-74
2022/06/26 08:26:55;;;;;;;3.87;2.80;;;;;;;;;;1754343;81;21361;-75
2022/06/26 08:29:21;;;;;;;4.78;2.87;;;;;;;;;;1757067;81;21296;-75
2022/06/26 08:31:48;;;;;;;5.97;2.90;;;;;;;;;;1758930;81;21009;-75
2022/06/26 08:34:14;;;;;;;4.00;2.70;;;;;;;;;;1758700;81;21604;-75
2022/06/26 08:36:41;;;;;;;4.40;2.87;;;;;;;;;;1758970;81;21037;-74
2022/06/26 08:39:07;;;;;;;3.30;2.90;;;;;;;;;;1756199;81;21659;-75
2022/06/26 08:41:36;;;;;;;3.92;2.70;;;;;;;;;;1756140;81;21581;-75
2022/06/26 08:44:02;;;;;;;5.12;2.70;;;;;;;;;;1719687;83;21125;-76
2022/06/26 08:46:28;;;;;;;4.17;2.75;;;;;;;;;;1719917;83;21598;-76
2022/06/26 08:48:56;;;;;;;5.87;3.25;;;;;;;;;;1720082;83;21041;-74
2022/06/26 08:51:22;;;;;;;6.00;3.33;;;;;;;;;;1756433;81;21560;-74
2022/06/26 08:53:48;;;;;;;4.65;2.87;;;;;;;;;;1759158;81;21013;-75
2022/06/26 08:56:14;;;;;;;7.20;3.15;;;;;;;;;;1759017;81;21076;-74
2022/06/26 08:58:40;;;;;;;4.58;2.83;;;;;;;;;;1757388;81;21049;-74
2022/06/26 09:01:07;;;;;;;5.65;2.95;;;;;;;;;;1754766;81;21045;-74
2022/06/26 09:03:34;;;;;;;5.65;3.12;;;;;;;;;;1758989;80;21132;-74
2022/06/26 09:06:03;;;;;;;3.90;2.95;;;;;;;;;;1759057;81;21061;-74
2022/06/26 09:08:30;;;;;;;5.75;4.08;;;;;;;;;;1756416;81;21066;-74
2022/06/26 09:10:56;;;;;;;5.58;4.45;;;;;;;;;;1758975;81;21580;-74
2022/06/26 09:13:23;;;;;;;5.37;3.72;;;;;;;;;;1759204;81;21037;-74
2022/06/26 09:15:50;;;;;;;4.83;3.65;;;;;;;;;;1758776;81;21062;-74
2022/06/26 09:18:16;;;;;;;4.35;3.12;;;;;;;;;;1756140;81;21659;-76
2022/06/26 09:20:53;;;;;;;4.28;3.17;;;;;;;;;;1759052;81;21671;-75
2022/06/26 09:23:19;;;;;;;5.30;3.05;;;;;;;;;;1758973;81;21571;-76
2022/06/26 09:25:45;;;;;;;5.60;3.12;;;;;;;;;;1756291;81;21025;-75
2022/06/26 09:28:16;;;;;;;4.17;3.02;;;;;;;;;;1729206;82;20983;-75
2022/06/26 09:30:48;;;;;;;4.72;3.25;;;;;;;;;;1712144;84;21046;-75
2022/06/26 09:33:14;;;;;;;4.10;3.05;;;;;;;;;;1712058;83;21047;-75
2022/06/26 09:35:40;;;;;;;5.33;3.27;;;;;;;;;;1712259;84;21051;-75
2022/06/26 09:38:06;;;;;;;4.65;3.08;;;;;;;;;;1734068;82;21046;-75
2022/06/26 09:40:32;;;;;;;5.12;2.87;;;;;;;;;;1753333;82;21085;-74
2022/06/26 09:42:59;;;;;;;4.67;3.08;;;;;;;;;;1753155;82;21077;-73
2022/06/26 09:45:25;;;;;;;5.08;3.05;;;;;;;;;;1753222;82;21018;-74
2022/06/26 09:47:51;;;;;;;4.53;3.00;;;;;;;;;;1736706;81;20987;-73
2022/06/26 09:50:17;;;;;;;4.37;3.02;;;;;;;;;;1712191;84;21054;-74
2022/06/26 09:52:43;;;;;;;4.67;3.00;;;;;;;;;;1712119;84;21015;-73
2022/06/26 09:55:10;;;;;;;4.80;3.10;;;;;;;;;;1712162;84;21058;-74
2022/06/26 09:57:37;;;;;;;4.72;3.05;;;;;;;;;;1712467;82;21054;-73
2022/06/26 10:00:03;;;;;;;4.30;3.15;;;;;;;;;;1712207;84;21075;-73
2022/06/26 10:08:04;;;;;;;5.08;3.12;;;;;;;;;;1753135;82;21042;-73
2022/06/26 10:10:30;;;;;;;4.58;3.45;;;;;;;;;;1753594;82;21563;-73
2022/06/26 10:12:57;;;;;;;3.20;2.90;;;;;;;;;;1744584;82;21153;-74
2022/06/26 10:15:24;;;;;;;3.77;2.87;;;;;;;;;;1729456;82;21038;-74
2022/06/26 10:18:09;;;;;;;4.28;3.50;;;;;;;;;;1752412;82;21054;-73
2022/06/26 10:20:36;;;;;;;4.33;3.52;;;;;;;;;;1736093;82;21068;-76
2022/06/26 10:23:02;;;;;;;4.67;3.40;;;;;;;;;;1721106;82;21056;-72
2022/06/26 10:25:29;;;;;;;3.40;3.10;;;;;;;;;;1718154;82;21594;-73
2022/06/26 10:27:55;;;;;;;4.28;3.20;;;;;;;;;;1724708;83;21510;-72
2022/06/26 10:30:22;;;;;;;3.83;2.80;;;;;;;;;;1724920;83;21521;-72
2022/06/26 10:33:08;;;;;;;3.87;3.22;;;;;;;;;;1732323;81;21081;-72
2022/06/26 10:35:39;;;;;;;5.22;3.35;;;;;;;;;;1758846;81;21069;-72
2022/06/26 10:38:21;;;;;;;4.20;3.05;;;;;;;;;;1758985;81;21081;-72
2022/06/26 10:43:47;;;;;;;5.85;3.35;;;;;;;;;;1758331;81;21525;-72
2022/06/26 10:46:13;;;;;;;4.15;3.10;;;;;;;;;;1757653;81;21573;-72
2022/06/26 10:48:41;;;;;;;4.80;3.10;;;;;;;;;;1731195;81;21021;-73
2022/06/26 10:51:07;;;;;;;10.05;3.65;;;;;;;;;;1757314;81;21589;-72
2022/06/26 10:53:37;;;;;;;3.60;2.72;;;;;;;;;;1756844;81;21037;-72
2022/06/26 10:56:04;;;;;;;3.52;3.10;;;;;;;;;;1758050;81;20974;-74
2022/06/26 11:02:11;;;;;;;4.12;2.95;;;;;;;;;;1732343;81;21159;-72
2022/06/26 11:04:48;;;;;;;3.52;3.20;;;;;;;;;;1756112;81;20998;-72
2022/06/26 11:07:14;;;;;;;3.70;2.80;;;;;;;;;;1758133;81;21628;-72
2022/06/26 11:09:41;;;;;;;3.70;2.98;;;;;;;;;;1750692;81;21070;-72
2022/06/26 11:12:07;;;;;;;5.25;2.98;;;;;;;;;;1757948;81;21054;-72
2022/06/26 11:14:34;;;;;;;3.65;3.17;;;;;;;;;;1758855;81;21064;-72
2022/06/26 11:17:01;;;;;;;6.45;3.25;;;;;;;;;;1755873;81;21085;-73
2022/06/26 11:19:28;;;;;;;4.05;3.12;;;;;;;;;;1758358;81;20998;-72
2022/06/26 11:22:07;;;;;;;3.72;3.17;;;;;;;;;;1755847;81;21100;-73
2022/06/26 11:24:34;;;;;;;4.25;3.22;;;;;;;;;;1758768;81;21068;-73
2022/06/26 11:27:00;;;;;;;3.35;3.05;;;;;;;;;;1751270;81;21021;-72
2022/06/26 11:29:26;;;;;;;4.62;3.37;;;;;;;;;;1753562;82;21034;-73
2022/06/26 11:31:52;;;;;;;4.90;3.10;;;;;;;;;;1732912;82;21512;-73
2022/06/26 11:34:20;;;;;;;3.45;3.15;;;;;;;;;;1722267;82;21051;-74
2022/06/26 11:36:50;;;;;;;5.33;3.25;;;;;;;;;;1724377;82;21177;-76
2022/06/26 11:39:17;;;;;;;5.33;4.22;;;;;;;;;;1723194;82;21037;-78
2022/06/26 11:41:43;;;;;;;7.20;5.70;;;;;;;;;;1719631;82;21518;-74
2022/06/26 11:44:09;;;;;;;4.97;3.50;;;;;;;;;;1711859;82;21048;-73
2022/06/26 11:46:35;;;;;;;6.60;3.40;;;;;;;;;;1720100;82;21029;-73
2022/06/26 11:49:01;;;;;;;4.50;3.00;;;;;;;;;;1726730;82;21099;-73
2022/06/26 11:51:30;;;;;;;4.00;2.98;;;;;;;;;;1720377;82;21595;-73
2022/06/26 11:53:56;;;;;;;3.62;2.65;;;;;;;;;;1716235;82;21054;-73
2022/06/26 11:56:24;;;;;;;3.62;2.70;;;;;;;;;;1724121;82;21098;-73
2022/06/26 11:58:51;;;;;;;4.05;2.90;;;;;;;;;;1718168;82;21052;-74
2022/06/26 12:01:17;;;;;;;3.12;2.62;;;;;;;;;;1719772;82;21497;-75
2022/06/26 12:03:45;;;;;;;4.08;2.50;;;;;;;;;;1721069;82;21059;-75
2022/06/26 12:06:14;;;;;;;3.00;2.70;;;;;;;;;;1712259;83;21102;-75
2022/06/26 12:08:40;;;;;;;3.40;2.85;;;;;;;;;;1707753;82;20995;-75
2022/06/26 12:11:06;;;;;;;3.70;2.47;;;;;;;;;;1727225;82;21021;-75
2022/06/26 12:13:33;;;;;;;4.97;2.60;;;;;;;;;;1716815;83;21025;-75
2022/06/26 12:16:03;;;;;;;5.15;3.08;;;;;;;;;;1718175;82;21461;-75
2022/06/26 12:18:29;;;;;;;5.28;3.47;;;;;;;;;;1716804;82;21041;-75
2022/06/26 12:20:55;;;;;;;3.98;2.70;;;;;;;;;;1744137;82;21005;-75
2022/06/26 12:23:32;;;;;;;5.58;2.60;;;;;;;;;;1753137;82;21663;-75
2022/06/26 12:26:06;;;;;;;3.37;2.60;;;;;;;;;;1721017;82;21045;-75
2022/06/26 12:28:32;;;;;;;3.10;2.60;;;;;;;;;;1685734;83;21623;-75
2022/06/26 12:31:00;;;;;;;2.75;2.45;;;;;;;;;;1680383;83;21051;-76
2022/06/26 12:33:26;;;;;;;7.10;3.27;;;;;;;;;;1663274;85;21008;-76
2022/06/26 12:35:52;;;;;;;3.27;2.50;;;;;;;;;;1716743;82;21026;-76
2022/06/26 12:38:25;;;;;;;4.22;3.25;;;;;;;;;;1713708;82;20990;-76
2022/06/26 12:40:50;;;;;;;;;;;;;;;;;;1724964;82;21022;-76
2022/06/26 12:43:18;;;;;;;4.65;2.75;;;;;;;;;;1719033;82;20121;-76
2022/06/26 12:45:44;;;;;;;5.50;2.65;;;;;;;;;;1730805;82;21525;-76
2022/06/26 12:48:10;;;;;;;3.52;2.50;;;;;;;;;;1724190;82;21560;-75
2022/06/26 12:50:36;;;;;;;2.50;2.25;;;;;;;;;;1719049;82;21037;-75
2022/06/26 12:53:02;;;;;;;3.83;2.58;;;;;;;;;;1734449;82;21057;-76
2022/06/26 12:55:29;;;;;;;3.25;2.40;;;;;;;;;;1724358;82;21548;-75
2022/06/26 12:57:55;;;;;;;3.50;2.70;;;;;;;;;;1720514;82;21005;-76
2022/06/26 13:00:21;;;;;;;2.80;2.50;;;;;;;;;;1732821;80;20994;-76
2022/06/26 13:02:47;;;;;;;4.60;2.40;;;;;;;;;;1736932;82;21114;-76
2022/06/26 13:05:13;;;;;;;5.00;2.40;;;;;;;;;;1727821;82;21616;-77
2022/06/26 13:07:39;;;;;;;5.95;2.67;;;;;;;;;;1734883;82;21008;-76
2022/06/26 13:10:05;;;;;;;7.22;2.65;;;;;;;;;;1745336;82;21011;-77
2022/06/26 13:12:31;;;;;;;6.20;2.55;;;;;;;;;;1719610;82;21057;-76
2022/06/26 13:14:57;;;;;;;6.42;2.80;;;;;;;;;;1728713;82;21014;-75
2022/06/26 13:17:23;;;;;;;4.45;2.47;;;;;;;;;;1735501;82;20953;-75
2022/06/26 13:19:49;;;;;;;2.52;2.33;;;;;;;;;;1720271;82;20970;-74
2022/06/26 13:22:15;;;;;;;2.87;2.50;;;;;;;;;;1717844;82;21458;-74
2022/06/26 13:24:42;;;;;;;13.08;3.00;;;;;;;;;;1744306;82;21101;-74
2022/06/26 13:27:09;;;;;;;3.10;2.27;;;;;;;;;;1745905;80;21079;-73
2022/06/26 13:29:35;;;;;;;3.62;2.80;;;;;;;;;;1719122;82;20964;-74
2022/06/26 13:32:01;;;;;;;8.08;7.28;;;;;;;;;;1707279;83;21019;-73
2022/06/26 13:34:29;;;;;;;4.72;4.33;;;;;;;;;;1706778;83;21070;-74
2022/06/26 13:36:55;;;;;;;6.78;5.40;;;;;;;;;;1720333;82;21495;-74
2022/06/26 13:39:21;;;;;;;5.17;4.10;;;;;;;;;;1719102;82;21519;-75
2022/06/26 13:41:47;;;;;;;3.90;3.02;;;;;;;;;;1737688;82;21050;-75
2022/06/26 13:44:13;;;;;;;3.20;2.70;;;;;;;;;;1716848;82;21008;-76
2022/06/26 13:46:39;;;;;;;2.65;2.33;;;;;;;;;;1724099;82;21082;-74
2022/06/26 13:50:18;;;;;;;6.33;3.05;;;;;;;;;;1796689;79;23031;-74
2022/06/26 13:52:44;;;;;;;4.87;3.47;;;;;;;;;;1759476;80;21084;-75
2022/06/26 13:55:10;;;;;;;4.50;3.20;;;;;;;;;;1758708;80;21099;-76
2022/06/26 13:57:37;;;;;;;4.00;3.20;;;;;;;;;;1758029;80;21009;-75
2022/06/26 14:00:04;;;;;;;8.08;5.35;;;;;;;;;;1766686;80;20985;-76
2022/06/26 14:02:32;;;;;;;6.72;3.87;;;;;;;;;;1727052;82;21068;-74
2022/06/26 14:04:58;;;;;;;7.95;3.30;;;;;;;;;;1738422;82;21554;-74
2022/06/26 14:07:24;;;;;;;4.45;2.90;;;;;;;;;;1725489;83;21557;-74
2022/06/26 14:09:51;;;;;;;4.30;2.60;;;;;;;;;;1728079;83;21065;-75
2022/06/26 14:12:18;;;;;;;2.90;2.60;;;;;;;;;;1727764;83;21496;-74
2022/06/26 14:14:44;;;;;;;5.90;3.37;;;;;;;;;;1726380;82;21064;-74
2022/06/26 14:17:10;;;;;;;3.15;2.77;;;;;;;;;;1736204;82;21052;-74
2022/06/26 14:19:36;;;;;;;3.37;2.92;;;;;;;;;;1745401;82;21503;-77
2022/06/26 14:27:31;;;;;;;3.58;2.60;;;;;;;;;;1684541;83;20152;-78
2022/06/26 14:29:57;;;;;;;2.98;2.58;;;;;;;;;;1670083;85;21028;-77
2022/06/26 14:32:23;;;;;;;5.58;2.60;;;;;;;;;;1669597;86;22101;-80
2022/06/26 14:34:49;;;;;;;3.90;2.72;;;;;;;;;;1680884;84;21000;-80
2022/06/26 14:37:15;;;;;;;3.37;2.58;;;;;;;;;;1668972;86;21578;-81
2022/06/26 14:39:41;;;;;;;2.95;2.65;;;;;;;;;;1682744;85;21418;-79
2022/06/26 14:42:07;;;;;;;8.08;3.00;;;;;;;;;;1691109;85;21039;-79
2022/06/26 14:44:34;;;;;;;4.92;2.72;;;;;;;;;;1680778;85;21043;-76
2022/06/26 14:47:00;;;;;;;4.08;2.65;;;;;;;;;;1673985;84;21029;-75
2022/06/26 14:49:26;;;;;;;10.95;3.35;;;;;;;;;;1652885;85;21505;-79
2022/06/26 14:51:52;;;;;;;9.05;3.08;;;;;;;;;;1657771;85;21048;-78
2022/06/26 14:54:18;;;;;;;3.95;2.58;;;;;;;;;;1648896;85;21317;-77
2022/06/26 14:56:44;;;;;;;3.83;2.98;;;;;;;;;;1665202;86;21012;-77
2022/06/26 14:59:10;;;;;;;3.15;2.72;;;;;;;;;;1661437;85;21091;-79
2022/06/26 15:01:36;;;;;;;3.40;2.67;;;;;;;;;;1654857;85;21645;-78
2022/06/26 15:04:02;;;;;;;3.30;2.60;;;;;;;;;;1656305;85;21095;-78
2022/06/26 15:06:28;;;;;;;3.65;3.10;;;;;;;;;;1671153;85;21131;-78
2022/06/26 15:08:55;;;;;;;4.90;3.02;;;;;;;;;;1686021;83;21672;-79
2022/06/26 15:11:22;;;;;;;3.27;2.77;;;;;;;;;;1686543;83;21024;-78
2022/06/26 15:13:48;;;;;;;3.47;2.65;;;;;;;;;;1670652;83;21558;-79
2022/06/26 15:16:14;;;;;;;5.25;3.05;;;;;;;;;;1676527;85;20961;-79
2022/06/26 15:18:40;;;;;;;9.35;6.10;;;;;;;;;;1685137;83;21602;-78